Time;durP1;ratioP1;P1;durP2;ratioP2;P2;SDS_P1;SDS_P2;PMS_P1;PMS_P2;Temp;Humidity;BMP_temperature;BMP_pressure;BME280_temperature;BME280_humidity;BME280_pressure;Samples;Min_cycle;Max_cycle;Signal;HPM_P1;HPM_P2
2021/09/04 00:00:20;;;;;;;12.93;8.98;;;13.30;99.90;;;;;;5051376;28;20029;-69
2021/09/04 00:02:46;;;;;;;15.73;9.48;;;13.30;99.90;;;;;;5051045;28;20071;-72
2021/09/04 00:05:12;;;;;;;10.95;8.98;;;13.30;99.90;;;;;;5051581;28;20017;-72
2021/09/04 00:07:37;;;;;;;13.13;9.02;;;13.40;99.90;;;;;;5050254;28;20071;-72
2021/09/04 00:10:03;;;;;;;11.95;9.05;;;13.40;99.90;;;;;;5051053;28;20033;-72
2021/09/04 00:12:29;;;;;;;10.13;7.95;;;13.30;99.90;;;;;;5050198;28;20037;-72
2021/09/04 00:14:56;;;;;;;10.45;7.70;;;13.30;99.90;;;;;;5051463;28;20021;-72
2021/09/04 00:17:21;;;;;;;9.90;7.88;;;13.20;99.90;;;;;;5050775;28;20068;-72
2021/09/04 00:19:47;;;;;;;13.48;8.35;;;13.20;99.90;;;;;;5049764;28;20503;-72
2021/09/04 00:22:13;;;;;;;12.43;8.68;;;13.20;99.90;;;;;;5050965;28;20032;-69
2021/09/04 00:24:39;;;;;;;10.82;8.23;;;13.20;99.90;;;;;;5050415;28;20056;-70
2021/09/04 00:27:08;;;;;;;13.55;9.13;;;13.10;99.90;;;;;;5050721;28;20037;-70
2021/09/04 00:29:34;;;;;;;10.73;7.90;;;13.10;99.90;;;;;;5050139;28;20067;-70
2021/09/04 00:32:00;;;;;;;10.35;7.60;;;13.00;99.90;;;;;;5050667;28;20562;-70
2021/09/04 00:34:26;;;;;;;9.68;7.63;;;13.00;99.90;;;;;;5050396;28;20060;-71
2021/09/04 00:36:52;;;;;;;12.48;8.57;;;13.00;99.90;;;;;;5050693;28;20056;-70
2021/09/04 00:39:18;;;;;;;12.70;9.30;;;13.00;99.90;;;;;;5050417;28;20029;-70
2021/09/04 00:41:44;;;;;;;10.98;8.15;;;12.90;99.90;;;;;;5050014;28;20053;-70
2021/09/04 00:44:16;;;;;;;14.98;9.40;;;12.90;99.90;;;;;;5050843;28;20029;-70
2021/09/04 00:46:42;;;;;;;12.93;8.65;;;12.90;99.90;;;;;;5049861;28;20036;-70
2021/09/04 00:49:08;;;;;;;13.65;8.50;;;12.90;99.90;;;;;;5050639;28;20082;-71
2021/09/04 00:51:33;;;;;;;11.95;8.48;;;12.90;99.90;;;;;;5049911;28;20025;-70
2021/09/04 00:53:59;;;;;;;13.68;8.73;;;12.90;99.90;;;;;;5049688;28;20428;-70
2021/09/04 00:56:26;;;;;;;13.07;9.63;;;13.00;99.90;;;;;;5050603;28;20037;-71
2021/09/04 00:58:51;;;;;;;12.88;8.90;;;13.00;99.90;;;;;;5051993;28;20147;-70
2021/09/04 01:01:17;;;;;;;12.02;8.57;;;13.00;99.90;;;;;;5054586;28;20123;-70
2021/09/04 01:03:43;;;;;;;13.50;8.73;;;13.00;99.90;;;;;;5053462;28;20029;-70
2021/09/04 01:06:11;;;;;;;12.60;8.80;;;13.00;99.90;;;;;;5054473;28;20025;-70
2021/09/04 01:08:37;;;;;;;12.18;9.10;;;12.90;99.90;;;;;;5053781;28;20036;-70
2021/09/04 01:11:03;;;;;;;11.82;8.45;;;12.90;99.90;;;;;;5054179;28;20033;-70
2021/09/04 01:13:28;;;;;;;11.05;8.48;;;12.80;99.90;;;;;;5053512;28;20498;-71
2021/09/04 01:15:54;;;;;;;11.73;9.00;;;12.80;99.90;;;;;;5053842;28;20119;-70
2021/09/04 01:18:21;;;;;;;12.05;8.63;;;12.70;99.90;;;;;;5053746;28;20036;-70
2021/09/04 01:20:47;;;;;;;10.35;7.65;;;12.70;99.90;;;;;;5037448;28;20341;-71
2021/09/04 01:23:12;;;;;;;12.10;8.65;;;12.60;99.90;;;;;;5044132;28;20501;-70
2021/09/04 01:25:41;;;;;;;9.82;7.88;;;12.60;99.90;;;;;;5051641;28;20036;-70
2021/09/04 01:28:07;;;;;;;11.35;8.10;;;12.60;99.90;;;;;;5053881;28;20025;-71
2021/09/04 01:30:33;;;;;;;12.05;9.27;;;12.60;99.90;;;;;;5053208;28;20112;-71
2021/09/04 01:32:59;;;;;;;10.93;8.35;;;12.60;99.90;;;;;;5054085;28;20036;-70
2021/09/04 01:35:25;;;;;;;10.57;8.65;;;12.50;99.90;;;;;;5053740;28;20045;-70
2021/09/04 01:37:52;;;;;;;10.75;8.52;;;12.50;99.90;;;;;;5053204;28;20029;-70
2021/09/04 01:40:19;;;;;;;10.73;8.18;;;12.50;99.90;;;;;;5053969;28;20025;-70
2021/09/04 01:42:47;;;;;;;10.82;8.40;;;12.40;99.90;;;;;;5052418;28;20052;-70
2021/09/04 01:45:13;;;;;;;11.32;8.88;;;12.40;99.90;;;;;;5053846;28;20112;-70
2021/09/04 01:47:39;;;;;;;11.13;8.38;;;12.40;99.90;;;;;;5052769;28;20104;-70
2021/09/04 01:50:11;;;;;;;10.85;8.68;;;12.30;99.90;;;;;;5053263;28;20047;-70
2021/09/04 01:52:38;;;;;;;11.43;8.55;;;12.30;99.90;;;;;;5053168;28;20497;-70
2021/09/04 01:55:05;;;;;;;11.95;8.57;;;12.30;99.90;;;;;;5053136;28;20041;-70
2021/09/04 01:57:31;;;;;;;12.48;8.43;;;12.30;99.90;;;;;;5052402;28;20112;-71
2021/09/04 01:59:56;;;;;;;10.23;8.25;;;12.20;99.90;;;;;;5053365;28;20104;-70
2021/09/04 02:02:22;;;;;;;10.43;8.60;;;12.20;99.90;;;;;;5053326;28;20029;-70
2021/09/04 02:04:47;;;;;;;10.50;8.55;;;12.20;99.90;;;;;;5052100;28;20036;-70
2021/09/04 02:07:13;;;;;;;10.70;8.77;;;12.20;99.90;;;;;;5053261;28;20036;-71
2021/09/04 02:09:38;;;;;;;13.65;9.80;;;12.20;99.90;;;;;;5052212;28;20478;-70
2021/09/04 02:12:04;;;;;;;11.35;8.52;;;12.10;99.90;;;;;;5052641;28;20117;-70
2021/09/04 02:14:30;;;;;;;11.02;8.70;;;12.20;99.90;;;;;;5052503;28;20067;-71
2021/09/04 02:16:56;;;;;;;9.77;8.00;;;12.10;99.90;;;;;;5052987;28;20458;-70
2021/09/04 02:19:21;;;;;;;10.80;7.97;;;12.10;99.90;;;;;;5052814;28;20546;-70
2021/09/04 02:21:47;;;;;;;11.45;8.82;;;12.10;99.90;;;;;;5052193;28;20024;-70
2021/09/04 02:24:13;;;;;;;11.55;8.82;;;12.10;99.90;;;;;;5052835;28;20389;-70
2021/09/04 02:26:38;;;;;;;11.60;9.68;;;12.00;99.90;;;;;;5052797;28;20029;-70
2021/09/04 02:29:04;;;;;;;11.73;9.25;;;12.00;99.90;;;;;;5053262;28;20053;-70
2021/09/04 02:31:29;;;;;;;14.10;10.30;;;12.00;99.90;;;;;;5052723;28;20426;-71
2021/09/04 02:33:56;;;;;;;12.75;9.75;;;12.00;99.90;;;;;;5051893;28;20032;-70
2021/09/04 02:36:23;;;;;;;12.30;9.75;;;12.00;99.90;;;;;;5052860;28;20455;-70
2021/09/04 02:38:49;;;;;;;11.27;8.98;;;12.00;99.90;;;;;;5051776;28;20029;-70
2021/09/04 02:41:16;;;;;;;12.73;9.63;;;11.90;99.90;;;;;;5051917;28;20053;-70
2021/09/04 02:43:42;;;;;;;11.32;8.25;;;11.90;99.90;;;;;;5051927;28;20063;-70
2021/09/04 02:46:09;;;;;;;10.30;8.00;;;11.80;99.90;;;;;;5052466;28;20431;-70
2021/09/04 02:48:35;;;;;;;10.45;7.93;;;11.80;99.90;;;;;;5051230;28;20839;-71
2021/09/04 02:51:00;;;;;;;12.75;8.85;;;11.80;99.90;;;;;;5052511;28;20043;-70
2021/09/04 02:53:26;;;;;;;12.32;9.57;;;11.80;99.90;;;;;;5052205;28;20029;-70
2021/09/04 02:55:52;;;;;;;11.18;8.80;;;11.70;99.90;;;;;;5052052;28;20095;-70
2021/09/04 02:58:18;;;;;;;11.93;9.10;;;11.70;99.90;;;;;;5052202;28;20474;-70
2021/09/04 03:00:44;;;;;;;11.55;8.68;;;11.70;99.90;;;;;;5051055;28;20111;-70
2021/09/04 03:03:10;;;;;;;12.85;8.27;;;11.60;99.90;;;;;;5052222;28;20025;-70
2021/09/04 03:05:35;;;;;;;12.68;8.88;;;11.60;99.90;;;;;;5051266;28;20115;-70
2021/09/04 03:08:02;;;;;;;12.00;9.13;;;11.60;99.90;;;;;;5052190;28;20032;-70
2021/09/04 03:10:28;;;;;;;13.13;9.07;;;11.50;99.90;;;;;;5051588;28;20040;-70
2021/09/04 03:12:54;;;;;;;11.05;8.85;;;11.50;99.90;;;;;;5051503;28;20037;-70
2021/09/04 03:15:20;;;;;;;11.13;8.35;;;11.50;99.90;;;;;;5052009;28;20078;-70
2021/09/04 03:17:46;;;;;;;13.05;10.05;;;11.50;99.90;;;;;;5051292;28;20025;-70
2021/09/04 03:20:12;;;;;;;13.20;9.88;;;11.50;99.90;;;;;;5051839;28;20032;-70
2021/09/04 03:22:37;;;;;;;11.98;9.15;;;11.50;99.90;;;;;;5050060;28;20033;-71
2021/09/04 03:25:04;;;;;;;11.35;8.40;;;11.50;99.90;;;;;;5052021;28;20032;-70
2021/09/04 03:27:30;;;;;;;11.82;9.05;;;11.60;99.90;;;;;;5051090;28;20049;-71
2021/09/04 03:29:57;;;;;;;14.73;10.15;;;11.60;99.90;;;;;;5049692;28;20089;-70
2021/09/04 03:32:22;;;;;;;13.18;9.70;;;11.60;99.90;;;;;;5050508;28;20051;-70
2021/09/04 03:34:48;;;;;;;13.10;9.75;;;11.50;99.90;;;;;;5049767;28;20037;-71
2021/09/04 03:37:14;;;;;;;12.32;9.40;;;11.50;99.90;;;;;;5050233;28;20024;-71
2021/09/04 03:39:40;;;;;;;10.77;8.90;;;11.50;99.90;;;;;;5049451;28;20033;-71
2021/09/04 03:42:05;;;;;;;13.77;10.18;;;11.50;99.90;;;;;;5050032;28;20452;-71
2021/09/04 03:44:31;;;;;;;13.35;9.68;;;11.50;99.90;;;;;;5049961;28;20120;-72
2021/09/04 03:46:57;;;;;;;14.07;9.25;;;11.40;99.90;;;;;;5050032;28;20451;-70
2021/09/04 03:49:23;;;;;;;12.63;9.85;;;11.40;99.90;;;;;;5049951;28;20024;-69
2021/09/04 03:51:48;;;;;;;11.93;8.98;;;11.40;99.90;;;;;;5049314;28;20043;-70
2021/09/04 03:54:14;;;;;;;14.27;9.40;;;11.30;99.90;;;;;;5049980;28;20033;-70
2021/09/04 03:56:40;;;;;;;11.80;9.18;;;11.30;99.90;;;;;;5049810;28;20112;-70
2021/09/04 03:59:06;;;;;;;13.27;9.48;;;11.30;99.90;;;;;;5049631;28;20025;-70
2021/09/04 04:01:31;;;;;;;10.70;9.02;;;11.20;99.90;;;;;;5050047;28;20033;-71
2021/09/04 04:03:57;;;;;;;11.85;8.50;;;11.20;99.90;;;;;;5049707;28;20037;-71
2021/09/04 04:06:23;;;;;;;12.88;9.90;;;11.20;99.90;;;;;;5049681;28;20032;-71
2021/09/04 04:08:48;;;;;;;11.65;8.95;;;11.20;99.90;;;;;;5049102;28;20030;-70
2021/09/04 04:11:14;;;;;;;13.73;10.65;;;11.20;99.90;;;;;;5049682;28;20451;-71
2021/09/04 04:13:40;;;;;;;12.50;10.07;;;11.20;99.90;;;;;;5048633;28;20040;-71
2021/09/04 04:16:06;;;;;;;13.80;9.90;;;11.20;99.90;;;;;;5049782;28;20153;-68
2021/09/04 04:18:33;;;;;;;14.90;10.18;;;11.10;99.90;;;;;;5049040;28;20029;-71
2021/09/04 04:21:00;;;;;;;12.90;9.82;;;11.10;99.90;;;;;;5047522;28;20479;-70
2021/09/04 04:23:26;;;;;;;12.32;9.43;;;11.00;99.90;;;;;;5049740;28;20397;-69
2021/09/04 04:25:52;;;;;;;14.55;10.60;;;11.00;99.90;;;;;;5048922;28;20028;-70
2021/09/04 04:28:19;;;;;;;13.45;10.38;;;11.00;99.90;;;;;;5050112;28;20035;-70
2021/09/04 04:30:45;;;;;;;14.60;10.35;;;11.00;99.90;;;;;;5048978;28;20029;-70
2021/09/04 04:33:11;;;;;;;13.07;10.80;;;11.00;99.90;;;;;;5050101;28;20485;-70
2021/09/04 04:35:37;;;;;;;14.45;10.80;;;10.90;99.90;;;;;;5054526;28;20029;-70
2021/09/04 04:38:02;;;;;;;16.42;11.13;;;11.00;99.90;;;;;;5045587;28;20036;-70
2021/09/04 04:40:28;;;;;;;16.13;12.05;;;10.90;99.90;;;;;;5038352;28;20100;-70
2021/09/04 04:42:54;;;;;;;13.88;11.60;;;10.90;99.90;;;;;;5054259;28;20110;-70
2021/09/04 04:45:19;;;;;;;13.73;11.35;;;10.90;99.90;;;;;;5054931;28;20047;-70
2021/09/04 04:47:45;;;;;;;16.02;11.30;;;10.90;99.90;;;;;;5054162;28;20370;-70
2021/09/04 04:50:11;;;;;;;13.10;10.38;;;10.90;99.90;;;;;;5054751;28;20033;-70
2021/09/04 04:52:38;;;;;;;16.55;11.23;;;10.90;99.90;;;;;;5053818;28;20036;-70
2021/09/04 04:55:05;;;;;;;14.00;11.45;;;10.90;99.90;;;;;;5054587;28;20029;-71
2021/09/04 04:57:30;;;;;;;15.02;11.10;;;10.90;99.90;;;;;;5054462;28;20040;-71
2021/09/04 04:59:56;;;;;;;15.88;11.52;;;10.90;99.90;;;;;;5053862;28;20029;-70
2021/09/04 05:02:22;;;;;;;15.23;11.27;;;10.90;99.90;;;;;;5054730;28;20033;-70
2021/09/04 05:04:48;;;;;;;15.20;11.35;;;10.90;99.90;;;;;;5053327;28;20032;-70
2021/09/04 05:07:13;;;;;;;14.25;11.35;;;11.00;99.90;;;;;;5054399;28;20056;-71
2021/09/04 05:09:39;;;;;;;16.00;11.77;;;11.00;99.90;;;;;;5053305;28;20098;-71
2021/09/04 05:12:05;;;;;;;16.20;12.43;;;11.00;99.90;;;;;;5053913;28;20108;-71
2021/09/04 05:14:30;;;;;;;17.20;12.68;;;11.10;99.90;;;;;;5054690;28;20153;-74
2021/09/04 05:16:57;;;;;;;17.80;13.27;;;11.10;99.90;;;;;;5053287;28;20028;-73
2021/09/04 05:19:22;;;;;;;18.05;12.40;;;11.20;99.90;;;;;;5054000;28;20021;-71
2021/09/04 05:21:48;;;;;;;16.52;11.73;;;11.20;99.90;;;;;;5053496;28;20104;-71
2021/09/04 05:24:14;;;;;;;13.32;10.95;;;11.30;99.90;;;;;;5053463;28;20021;-71
2021/09/04 05:26:39;;;;;;;16.00;12.65;;;11.30;99.90;;;;;;5053369;28;20029;-70
2021/09/04 05:29:05;;;;;;;17.10;11.98;;;11.30;99.90;;;;;;5054160;28;20021;-71
2021/09/04 05:31:31;;;;;;;20.00;12.05;;;11.40;99.90;;;;;;5053889;28;20025;-71
2021/09/04 05:33:57;;;;;;;15.27;11.77;;;11.50;99.90;;;;;;5053394;28;20074;-70
2021/09/04 05:36:23;;;;;;;16.00;12.45;;;11.60;99.90;;;;;;5049692;28;21515;-71
2021/09/04 05:38:48;;;;;;;14.82;11.80;;;11.70;99.90;;;;;;5052933;28;20052;-71
2021/09/04 05:41:14;;;;;;;14.20;11.07;;;11.70;99.90;;;;;;5053444;28;20045;-70
2021/09/04 05:43:39;;;;;;;13.05;10.82;;;11.80;99.90;;;;;;5052918;28;20037;-71
2021/09/04 05:46:06;;;;;;;16.58;11.93;;;11.90;99.90;;;;;;5053073;28;20037;-70
2021/09/04 05:48:32;;;;;;;14.18;11.45;;;11.90;99.90;;;;;;5051249;28;20083;-71
2021/09/04 05:50:58;;;;;;;13.90;11.70;;;12.00;99.90;;;;;;5052861;28;20025;-71
2021/09/04 05:53:23;;;;;;;15.60;10.48;;;12.10;99.90;;;;;;5052445;28;20080;-70
2021/09/04 05:55:49;;;;;;;14.45;10.63;;;12.20;99.90;;;;;;5050795;28;21220;-71
2021/09/04 05:58:14;;;;;;;13.43;10.35;;;12.20;99.90;;;;;;5052824;28;20063;-70
2021/09/04 06:00:40;;;;;;;13.40;10.57;;;12.30;99.90;;;;;;5052563;28;20117;-71
2021/09/04 06:03:06;;;;;;;13.93;11.43;;;12.40;99.90;;;;;;5053475;28;20100;-71
2021/09/04 06:05:32;;;;;;;13.07;10.80;;;12.50;99.90;;;;;;5052476;28;20039;-71
2021/09/04 06:07:57;;;;;;;18.27;12.13;;;12.60;99.90;;;;;;5052431;28;20462;-71
2021/09/04 06:10:23;;;;;;;18.75;12.32;;;12.70;99.90;;;;;;5052231;28;20086;-71
2021/09/04 06:12:49;;;;;;;17.42;11.98;;;12.80;99.90;;;;;;5051676;28;20041;-71
2021/09/04 06:15:15;;;;;;;16.35;12.00;;;12.90;99.90;;;;;;5053375;28;20021;-70
2021/09/04 06:17:41;;;;;;;12.88;10.73;;;13.00;99.90;;;;;;5052444;28;20079;-71
2021/09/04 06:20:08;;;;;;;14.77;11.88;;;13.10;99.90;;;;;;5052057;28;20501;-71
2021/09/04 06:22:34;;;;;;;17.02;12.63;;;13.20;99.90;;;;;;5050989;28;20041;-71
2021/09/04 06:24:59;;;;;;;14.98;11.73;;;13.30;99.90;;;;;;5052302;28;20028;-71
2021/09/04 06:27:25;;;;;;;17.17;11.80;;;13.40;99.90;;;;;;5051973;28;20040;-71
2021/09/04 06:29:50;;;;;;;17.20;12.38;;;13.50;99.90;;;;;;5051939;28;20032;-71
2021/09/04 06:32:16;;;;;;;18.20;12.27;;;13.60;99.90;;;;;;5052562;28;20028;-71
2021/09/04 06:34:42;;;;;;;16.42;12.05;;;13.70;99.90;;;;;;5051894;28;20021;-71
2021/09/04 06:37:07;;;;;;;15.00;12.05;;;13.70;99.90;;;;;;5052569;28;20395;-71
2021/09/04 06:39:33;;;;;;;15.20;11.18;;;13.90;99.90;;;;;;5050796;28;20035;-72
2021/09/04 06:41:59;;;;;;;19.42;11.32;;;13.90;99.90;;;;;;5050445;28;20114;-70
2021/09/04 06:44:24;;;;;;;14.68;11.05;;;14.10;99.90;;;;;;5051669;28;20037;-71
2021/09/04 06:46:50;;;;;;;14.13;10.90;;;14.20;99.90;;;;;;5049776;28;20374;-71
2021/09/04 06:49:16;;;;;;;12.38;10.63;;;14.30;99.90;;;;;;5051242;28;20374;-71
2021/09/04 06:51:41;;;;;;;15.30;11.52;;;14.40;99.90;;;;;;5050644;28;20036;-71
2021/09/04 06:54:07;;;;;;;17.77;11.85;;;14.50;99.90;;;;;;5051287;28;20037;-71
2021/09/04 06:56:33;;;;;;;18.15;12.23;;;14.60;99.90;;;;;;5050568;28;20390;-71
2021/09/04 06:58:58;;;;;;;16.48;11.23;;;14.80;99.90;;;;;;5044621;28;20017;-71
2021/09/04 07:01:24;;;;;;;17.48;12.00;;;14.80;99.90;;;;;;5051340;28;20437;-71
2021/09/04 07:03:49;;;;;;;14.02;10.75;;;14.90;99.90;;;;;;5049241;28;20025;-71
2021/09/04 07:06:15;;;;;;;12.45;10.38;;;15.00;99.90;;;;;;5050693;28;20071;-71
2021/09/04 07:08:41;;;;;;;13.23;10.73;;;15.20;99.90;;;;;;5049961;28;20024;-70
2021/09/04 07:11:07;;;;;;;11.88;9.23;;;15.30;99.90;;;;;;5050950;28;20101;-71
2021/09/04 07:13:32;;;;;;;13.95;10.00;;;15.30;99.90;;;;;;5050851;28;20036;-70
2021/09/04 07:15:58;;;;;;;13.75;11.13;;;15.40;99.90;;;;;;5048534;28;20033;-70
2021/09/04 07:18:24;;;;;;;15.73;10.20;;;15.50;99.90;;;;;;5050770;28;20036;-71
2021/09/04 07:20:50;;;;;;;14.95;9.90;;;15.60;99.90;;;;;;5049474;28;20546;-71
2021/09/04 07:23:16;;;;;;;11.55;9.75;;;15.70;99.90;;;;;;5050938;28;20367;-71
2021/09/04 07:25:42;;;;;;;13.50;9.88;;;15.80;99.90;;;;;;5050289;28;20032;-71
2021/09/04 07:28:08;;;;;;;16.92;10.73;;;16.00;99.90;;;;;;5050503;28;20428;-71
2021/09/04 07:30:34;;;;;;;14.73;9.00;;;16.10;99.90;;;;;;5051102;28;20112;-71
2021/09/04 07:33:00;;;;;;;11.98;9.13;;;16.20;99.90;;;;;;5048298;28;20059;-72
2021/09/04 07:35:25;;;;;;;17.88;9.88;;;16.40;99.90;;;;;;5047917;28;20521;-71
2021/09/04 07:37:51;;;;;;;12.93;9.13;;;16.50;99.90;;;;;;5048555;28;20033;-71
2021/09/04 07:40:17;;;;;;;16.05;9.88;;;16.70;99.90;;;;;;5049901;28;20025;-73
2021/09/04 07:42:42;;;;;;;11.50;9.00;;;16.80;99.90;;;;;;5047306;28;20053;-73
2021/09/04 07:45:09;;;;;;;17.38;9.07;;;16.90;99.90;;;;;;5049924;28;20021;-76
2021/09/04 07:47:35;;;;;;;35.28;12.15;;;17.00;99.90;;;;;;5047120;28;20031;-73
2021/09/04 07:50:00;;;;;;;15.13;9.65;;;17.10;99.90;;;;;;5050376;28;20437;-77
2021/09/04 07:52:26;;;;;;;11.90;10.15;;;17.20;99.90;;;;;;5050312;28;20033;-76
2021/09/04 07:54:51;;;;;;;14.52;9.35;;;17.40;99.90;;;;;;5045177;28;20025;-78
2021/09/04 07:57:18;;;;;;;12.65;8.93;;;17.40;99.90;;;;;;5047645;28;20103;-79
2021/09/04 07:59:43;;;;;;;14.48;9.50;;;17.50;99.90;;;;;;5046374;28;20116;-79
2021/09/04 08:02:09;;;;;;;14.68;8.98;;;17.60;99.90;;;;;;5047615;28;20427;-76
2021/09/04 08:04:35;;;;;;;13.57;8.70;;;17.70;99.90;;;;;;5045810;28;20029;-76
2021/09/04 08:07:00;;;;;;;15.07;8.60;;;17.90;99.90;;;;;;5049886;28;20462;-75
2021/09/04 08:09:26;;;;;;;10.93;8.50;;;18.00;99.90;;;;;;5048112;28;20060;-77
2021/09/04 08:11:52;;;;;;;11.90;9.05;;;18.10;99.90;;;;;;5049722;28;20041;-76
2021/09/04 08:14:17;;;;;;;11.00;8.38;;;18.10;99.90;;;;;;5049648;28;20086;-77
2021/09/04 08:16:43;;;;;;;10.23;7.95;;;18.10;99.90;;;;;;5048852;28;20036;-77
2021/09/04 08:19:09;;;;;;;12.38;8.68;;;18.20;99.90;;;;;;5049833;28;20103;-76
2021/09/04 08:21:34;;;;;;;12.55;8.25;;;18.30;99.90;;;;;;5049340;28;20470;-81
2021/09/04 08:24:00;;;;;;;9.30;7.30;;;18.50;99.90;;;;;;5046449;28;20033;-76
2021/09/04 08:26:26;;;;;;;8.88;7.10;;;18.70;99.90;;;;;;5048757;28;20047;-77
2021/09/04 08:28:51;;;;;;;10.00;7.50;;;18.80;99.90;;;;;;5048673;28;20029;-74
2021/09/04 08:31:17;;;;;;;8.77;7.40;;;18.90;99.90;;;;;;5049885;28;20079;-69
2021/09/04 08:33:42;;;;;;;10.93;8.05;;;19.00;99.90;;;;;;5048649;28;20033;-77
2021/09/04 08:36:08;;;;;;;11.77;8.25;;;19.10;99.90;;;;;;5049648;28;20032;-77
2021/09/04 08:38:34;;;;;;;9.05;7.82;;;19.30;99.90;;;;;;5049584;28;20099;-84
2021/09/04 08:41:00;;;;;;;7.72;6.93;;;19.50;99.90;;;;;;5048203;28;20116;-76
2021/09/04 08:43:25;;;;;;;10.40;6.70;;;19.60;99.90;;;;;;5048857;28;20045;-76
2021/09/04 08:45:51;;;;;;;11.60;8.65;;;19.60;99.90;;;;;;5048832;28;20033;-77
2021/09/04 08:48:20;;;;;;;11.55;7.63;;;19.80;99.90;;;;;;5049589;28;20666;-75
2021/09/04 08:50:46;;;;;;;11.27;7.40;;;19.90;99.90;;;;;;5049319;28;20032;-77
2021/09/04 08:53:12;;;;;;;10.52;8.18;;;20.00;99.90;;;;;;5050711;28;20068;-77
2021/09/04 08:55:38;;;;;;;8.93;6.40;;;20.20;99.90;;;;;;5048591;28;20065;-80
2021/09/04 08:58:03;;;;;;;9.57;7.43;;;20.20;99.90;;;;;;5051251;28;20032;-76
2021/09/04 09:00:40;;;;;;;7.95;6.90;;;20.40;99.20;;;;;;5050748;28;20506;-76
2021/09/04 09:03:21;;;;;;;10.30;7.78;;;20.50;99.40;;;;;;5050636;28;20128;-76
2021/09/04 09:05:46;;;;;;;8.73;7.53;;;20.70;98.00;;;;;;5050127;28;20028;-76
2021/09/04 09:08:17;;;;;;;8.35;7.22;;;20.80;98.00;;;;;;5050723;28;20121;-75
2021/09/04 09:10:44;;;;;;;13.55;6.68;;;20.90;97.40;;;;;;5048650;28;20065;-78
2021/09/04 09:13:16;;;;;;;10.35;7.47;;;20.90;97.40;;;;;;5050407;28;20128;-77
2021/09/04 09:15:42;;;;;;;6.95;6.00;;;21.10;96.60;;;;;;5049901;28;20546;-76
2021/09/04 09:18:10;;;;;;;8.43;6.65;;;21.10;96.80;;;;;;5050864;28;20139;-77
2021/09/04 09:20:42;;;;;;;13.27;7.30;;;21.10;97.00;;;;;;5050915;28;20025;-82
2021/09/04 09:23:09;;;;;;;8.13;7.07;;;21.30;95.70;;;;;;5059990;28;20029;-75
2021/09/04 09:25:36;;;;;;;10.77;7.45;;;21.50;94.40;;;;;;5053776;28;20036;-79
2021/09/04 09:28:12;;;;;;;9.60;6.85;;;21.60;94.60;;;;;;5053427;28;20033;-78
2021/09/04 09:30:44;;;;;;;8.10;6.20;;;21.70;94.00;;;;;;5051718;28;20082;-80
2021/09/04 09:33:13;;;;;;;9.20;6.55;;;21.80;92.50;;;;;;5045961;28;20036;-78
2021/09/04 09:35:42;;;;;;;7.97;6.15;;;21.90;92.40;;;;;;5053428;28;20104;-80
2021/09/04 09:38:11;;;;;;;9.23;6.13;;;22.00;92.30;;;;;;5052443;28;20485;-76
2021/09/04 09:40:38;;;;;;;10.15;7.13;;;22.20;91.50;;;;;;5045179;28;20029;-82
2021/09/04 09:43:22;;;;;;;8.55;5.82;;;22.30;91.00;;;;;;5053245;28;20478;-76
2021/09/04 09:45:54;;;;;;;8.13;5.88;;;22.40;90.70;;;;;;5044446;28;20053;-75
2021/09/04 09:48:25;;;;;;;7.55;5.70;;;22.50;90.20;;;;;;5056060;28;20110;-79
2021/09/04 09:50:53;;;;;;;9.65;6.15;;;22.60;89.90;;;;;;5054945;28;20494;-76
2021/09/04 09:53:20;;;;;;;7.53;5.85;;;22.70;90.00;;;;;;5053756;28;20032;-77
2021/09/04 09:55:49;;;;;;;7.55;5.80;;;22.90;89.60;;;;;;5051293;28;20032;-78
2021/09/04 09:58:15;;;;;;;10.18;6.40;;;23.00;85.80;;;;;;5052012;28;20044;-75
2021/09/04 10:00:42;;;;;;;8.15;5.80;;;23.10;88.00;;;;;;5050998;28;20462;-80
2021/09/04 10:03:11;;;;;;;13.93;5.32;;;23.10;83.90;;;;;;5051550;28;20071;-78
2021/09/04 10:05:37;;;;;;;9.80;5.80;;;23.20;82.40;;;;;;5049679;28;20051;-82
2021/09/04 10:08:03;;;;;;;9.18;5.40;;;23.40;83.30;;;;;;5051141;28;20025;-78
2021/09/04 10:10:35;;;;;;;10.15;5.72;;;23.60;81.50;;;;;;5051894;28;20033;-77
2021/09/04 10:13:01;;;;;;;7.15;4.80;;;23.80;93.50;;;;;;5049758;28;20176;-76
2021/09/04 10:15:31;;;;;;;8.27;5.30;;;23.80;91.00;;;;;;5051530;28;20051;-79
2021/09/04 10:18:00;;;;;;;7.68;5.25;;;23.90;91.40;;;;;;5048501;28;20052;-76
2021/09/04 10:20:28;;;;;;;11.73;5.55;;;24.00;91.40;;;;;;5051102;28;20036;-70
2021/09/04 10:23:09;;;;;;;7.28;4.20;;;24.00;72.10;;;;;;5050777;28;20079;-71
2021/09/04 10:25:35;;;;;;;6.45;5.30;;;24.00;69.10;;;;;;5049361;28;20108;-71
2021/09/04 10:28:02;;;;;;;11.18;4.78;;;24.10;68.70;;;;;;5051147;28;20307;-71
2021/09/04 10:30:34;;;;;;;6.32;4.55;;;24.10;67.20;;;;;;5050207;28;20025;-72
2021/09/04 10:33:10;;;;;;;3.50;3.08;;;24.10;64.70;;;;;;5048707;28;20032;-72
2021/09/04 10:35:43;;;;;;;6.32;4.35;;;24.20;64.00;;;;;;5048776;28;20029;-72
2021/09/04 10:38:22;;;;;;;10.68;4.82;;;24.40;64.90;;;;;;5050687;28;20040;-71
2021/09/04 10:40:50;;;;;;;7.00;4.93;;;24.50;63.80;;;;;;5048120;28;20107;-73
2021/09/04 10:43:17;;;;;;;6.32;5.03;;;24.70;81.40;;;;;;5048126;28;20040;-74
2021/09/04 10:45:46;;;;;;;6.85;5.35;;;24.80;84.10;;;;;;5049446;28;20040;-76
2021/09/04 10:48:18;;;;;;;6.47;5.10;;;24.90;86.00;;;;;;5050474;28;20485;-73
2021/09/04 10:51:03;;;;;;;5.75;4.95;;;24.90;90.10;;;;;;5045556;28;20112;-73
2021/09/04 10:53:50;;;;;;;7.07;6.18;;;25.00;90.70;;;;;;5049516;28;20041;-74
2021/09/04 10:56:30;;;;;;;9.50;5.65;;;25.40;78.10;;;;;;5050708;28;20025;-71
2021/09/04 10:58:57;;;;;;;6.93;5.90;;;25.30;92.60;;;;;;5049918;28;20072;-72
2021/09/04 11:01:27;;;;;;;6.10;5.00;;;25.30;91.90;;;;;;5050705;28;20025;-73
2021/09/04 11:03:53;;;;;;;;;;;25.20;92.60;;;;;;5050194;28;20044;-70
2021/09/04 11:06:22;;;;;;;7.30;5.35;;;;;;;;;;5048020;28;19935;-70
2021/09/04 11:08:48;;;;;;;6.78;6.18;;;;;;;;;;5050092;28;20029;-71
2021/09/04 11:11:19;;;;;;;8.32;6.25;;;;;;;;;;5050811;28;20413;-70
2021/09/04 11:13:48;;;;;;;7.57;6.00;;;;;;;;;;5047716;28;20127;-70
2021/09/04 11:16:26;;;;;;;7.97;5.47;;;;;;;;;;5047650;28;20470;-70
2021/09/04 11:18:53;;;;;;;5.80;4.95;;;;;;;;;;5049023;28;20466;-74
2021/09/04 11:21:19;;;;;;;7.18;5.10;;;;;;;;;;5050067;28;20021;-78
2021/09/04 11:23:46;;;;;;;8.43;5.78;;;;;;;;;;5049633;28;20547;-74
2021/09/04 11:26:12;;;;;;;6.63;4.80;;;;;;;;;;5050449;28;20021;-71
2021/09/04 11:28:38;;;;;;;7.45;6.22;;;;;;;;;;5050629;28;20100;-73
2021/09/04 11:31:04;;;;;;;9.25;5.38;;;26.30;62.90;;;;;;5050860;28;20060;-71
2021/09/04 11:33:30;;;;;;;11.18;6.38;;;26.40;63.40;;;;;;5051598;28;20073;-71
2021/09/04 11:35:56;;;;;;;5.60;4.95;;;26.50;63.10;;;;;;5050014;28;20442;-71
2021/09/04 11:38:23;;;;;;;12.05;5.38;;;26.60;62.90;;;;;;5051615;28;20033;-70
2021/09/04 11:40:51;;;;;;;12.90;5.50;;;26.60;63.00;;;;;;5050840;28;20032;-70
2021/09/04 11:43:23;;;;;;;11.32;4.97;;;26.60;63.30;;;;;;5051482;28;20043;-72
2021/09/04 11:46:05;;;;;;;7.25;5.07;;;26.80;63.30;;;;;;5051201;28;20029;-71
2021/09/04 11:48:31;;;;;;;5.00;4.50;;;27.10;61.90;;;;;;5044048;28;20082;-71
2021/09/04 11:51:06;;;;;;;5.88;4.95;;;27.30;61.40;;;;;;5050336;28;20037;-71
2021/09/04 11:53:32;;;;;;;6.32;5.07;;;27.50;60.80;;;;;;5051397;28;20055;-71
2021/09/04 11:55:58;;;;;;;7.60;4.63;;;27.80;59.70;;;;;;5050292;28;20513;-71
2021/09/04 11:58:26;;;;;;;5.57;4.05;;;27.70;60.70;;;;;;5050978;28;20103;-71
2021/09/04 12:00:51;;;;;;;5.43;3.88;;;28.00;57.50;;;;;;5049062;28;20390;-71
2021/09/04 12:03:25;;;;;;;5.10;4.40;;;28.00;55.10;;;;;;5050972;28;20115;-70
2021/09/04 12:05:51;;;;;;;5.70;4.78;;;28.10;56.00;;;;;;5047050;28;20017;-70
2021/09/04 12:08:17;;;;;;;4.50;4.10;;;28.20;54.80;;;;;;5050936;28;20386;-70
2021/09/04 12:10:45;;;;;;;4.35;3.95;;;28.40;55.80;;;;;;5050265;28;20378;-71
2021/09/04 12:13:17;;;;;;;7.15;3.85;;;28.60;54.50;;;;;;5049915;28;20037;-71
2021/09/04 12:15:43;;;;;;;8.60;4.32;;;28.70;51.10;;;;;;5050483;28;20492;-71
2021/09/04 12:18:09;;;;;;;4.95;4.03;;;28.60;50.80;;;;;;5051419;28;20029;-72
2021/09/04 12:20:44;;;;;;;4.00;3.50;;;28.60;50.20;;;;;;5049717;28;20028;-70
2021/09/04 12:23:27;;;;;;;4.22;3.55;;;28.90;48.60;;;;;;5049706;28;20041;-71
2021/09/04 12:26:04;;;;;;;5.38;3.80;;;28.80;49.10;;;;;;5050507;28;20028;-71
2021/09/04 12:28:29;;;;;;;4.05;3.65;;;28.90;48.10;;;;;;5051313;28;20029;-70
2021/09/04 12:31:08;;;;;;;3.58;3.28;;;29.10;48.10;;;;;;5050329;28;20017;-71
2021/09/04 12:33:56;;;;;;;5.38;4.03;;;29.30;47.70;;;;;;5050967;28;20036;-70
2021/09/04 12:36:27;;;;;;;3.92;3.50;;;29.60;47.10;;;;;;5050674;28;20055;-71
2021/09/04 12:38:58;;;;;;;5.07;3.85;;;29.80;47.60;;;;;;5049857;28;20025;-71